Time;durP1;ratioP1;P1;durP2;ratioP2;P2;SDS_P1;SDS_P2;PMS_P1;PMS_P2;Temp;Humidity;BMP_temperature;BMP_pressure;BME280_temperature;BME280_humidity;BME280_pressure;Samples;Min_cycle;Max_cycle;Signal;HPM_P1;HPM_P2
2021/05/09 00:00:56;;;;;;;;;8.00;7.00;;;;;29.87;59.94;98765.03;5072143;28;8832;-76
2021/05/09 00:03:24;;;;;;;;;8.00;8.00;;;;;29.91;59.93;98767.69;5072058;28;8843;-76
2021/05/09 00:05:52;;;;;;;;;5.50;5.50;;;;;29.93;59.67;98773.50;5087717;28;8848;-76
2021/05/09 00:08:20;;;;;;;;;7.25;7.00;;;;;29.95;59.68;98782.06;5071982;28;8832;-76
2021/05/09 00:10:49;;;;;;;;;7.00;7.00;;;;;29.98;59.63;98790.19;5071874;28;8831;-76
2021/05/09 00:13:17;;;;;;;;;6.75;6.75;;;;;29.96;59.93;98786.31;5071899;28;8871;-76
2021/05/09 00:15:47;;;;;;;;;8.75;8.75;;;;;30.02;59.91;98784.78;5071931;28;8901;-76
2021/05/09 00:18:15;;;;;;;;;8.25;8.25;;;;;30.04;59.86;98788.66;5071872;28;8848;-76
2021/05/09 00:20:44;;;;;;;;;6.75;6.75;;;;;30.05;59.66;98787.47;5071918;28;8855;-77
2021/05/09 00:23:12;;;;;;;;;6.75;6.75;;;;;30.07;59.11;98790.56;5071864;28;8848;-77
2021/05/09 00:25:40;;;;;;;;;7.25;7.25;;;;;30.09;59.51;98798.34;5087539;28;8836;-76
2021/05/09 00:28:08;;;;;;;;;8.25;8.25;;;;;30.11;59.52;98791.34;5071989;28;8848;-77
2021/05/09 00:30:37;;;;;;;;;8.00;8.00;;;;;30.14;58.84;98800.66;5071725;28;8842;-76
2021/05/09 00:33:05;;;;;;;;;9.00;9.00;;;;;30.08;59.25;98791.34;5071723;28;8866;-76
2021/05/09 00:35:33;;;;;;;;;7.50;7.50;;;;;30.17;59.08;98803.34;5071713;28;8840;-77
2021/05/09 00:38:01;;;;;;;;;7.50;7.00;;;;;30.18;59.11;98806.84;5071992;28;8823;-76
2021/05/09 00:40:29;;;;;;;;;7.00;7.00;;;;;30.19;59.14;98814.63;5071726;28;8823;-76
2021/05/09 00:42:57;;;;;;;;;8.25;8.25;;;;;30.21;58.94;98811.50;5071720;28;8840;-76
2021/05/09 00:45:25;;;;;;;;;8.00;8.00;;;;;30.18;59.08;98810.34;5071727;28;8840;-76
2021/05/09 00:47:53;;;;;;;;;6.75;6.75;;;;;30.16;59.57;98809.19;5072472;28;8852;-76
2021/05/09 00:50:21;;;;;;;;;8.50;8.50;;;;;30.17;59.76;98818.91;5071518;28;8847;-76
2021/05/09 00:52:51;;;;;;;;;7.00;7.00;;;;;30.21;59.77;98827.06;5071615;28;8836;-76
2021/05/09 00:55:20;;;;;;;;;6.75;6.75;;;;;30.21;59.21;98830.56;5071246;28;8848;-76
2021/05/09 00:57:49;;;;;;;;;8.00;8.00;;;;;30.22;59.21;98831.31;5071915;28;8847;-76
2021/05/09 01:00:18;;;;;;;;;8.75;8.75;;;;;30.22;59.26;98832.09;5071404;28;8872;-76
2021/05/09 01:02:46;;;;;;;;;7.50;7.50;;;;;30.21;59.48;98824.34;5071431;28;8867;-76
2021/05/09 01:05:16;;;;;;;;;8.50;8.50;;;;;30.24;58.93;98826.25;5071378;28;9591;-76
2021/05/09 01:07:44;;;;;;;;;8.00;8.00;;;;;30.28;59.30;98838.69;5071523;28;8844;-76
2021/05/09 01:10:16;;;;;;;;;9.50;9.50;;;;;30.29;59.29;98840.22;5074888;28;8836;-76
2021/05/09 01:12:44;;;;;;;;;7.25;7.25;;;;;30.27;59.24;98837.13;5090489;28;8858;-76
2021/05/09 01:15:13;;;;;;;;;9.75;9.75;;;;;30.34;58.86;98845.25;5074961;28;8847;-76
2021/05/09 01:17:41;;;;;;;;;8.00;7.75;;;;;30.34;59.02;98841.75;5075047;28;8863;-76
2021/05/09 01:20:16;;;;;;;;;6.75;6.75;;;;;30.39;59.41;98854.97;5074741;28;8844;-76
2021/05/09 01:22:44;;;;;;;;;9.75;9.75;;;;;30.41;59.53;98849.91;5074841;28;8860;-76
2021/05/09 01:25:13;;;;;;;;;8.00;8.00;;;;;30.41;59.10;98853.38;5074879;28;8840;-76
2021/05/09 01:27:41;;;;;;;;;8.00;8.00;;;;;30.46;59.42;98852.19;5074824;28;9549;-76
2021/05/09 01:30:10;;;;;;;;;8.00;8.00;;;;;30.47;58.93;98853.75;5074510;28;8909;-76
2021/05/09 01:32:39;;;;;;;;;7.75;7.50;;;;;30.26;58.67;98819.25;5074620;28;8921;-76
2021/05/09 01:35:08;;;;;;;;;7.00;7.00;;;;;30.55;59.20;98868.09;5074657;28;8859;-76
2021/05/09 01:37:36;;;;;;;;;7.75;7.75;;;;;30.57;58.55;98868.47;5074303;28;8856;-78
2021/05/09 01:40:06;;;;;;;;;9.50;9.50;;;;;30.58;58.64;98870.84;5090161;28;8837;-78
2021/05/09 01:42:34;;;;;;;;;7.75;7.75;;;;;30.62;58.30;98871.59;5094439;28;8848;-78
2021/05/09 01:45:03;;;;;;;;;8.50;8.50;;;;;30.62;58.68;98874.31;5094652;28;8841;-78
2021/05/09 01:47:31;;;;;;;;;9.75;9.75;;;;;30.65;58.59;98873.53;5094684;28;8845;-78
2021/05/09 01:49:59;;;;;;;;;7.75;7.75;;;;;30.71;58.24;98892.94;5094426;28;8849;-78
2021/05/09 01:52:27;;;;;;;;;6.50;6.50;;;;;30.72;58.08;98889.81;5094530;28;8853;-78
2021/05/09 01:54:56;;;;;;;;;10.00;10.00;;;;;30.77;58.16;98899.53;5094081;28;8830;-78
2021/05/09 01:57:24;;;;;;;;;7.00;7.00;;;;;30.81;58.20;98895.59;5094382;28;8853;-80
2021/05/09 01:59:52;;;;;;;;;9.25;8.25;;;;;30.84;58.09;98899.47;5094360;28;8955;-80
2021/05/09 02:02:21;;;;;;;;;7.00;7.00;;;;;30.86;58.05;98897.13;5093210;28;9558;-78
2021/05/09 02:04:51;;;;;;;;;6.00;6.00;;;;;30.84;57.19;98899.47;5095386;28;8849;-80
2021/05/09 02:07:20;;;;;;;;;6.25;6.25;;;;;30.90;56.85;98902.56;5095403;28;8951;-80
2021/05/09 02:09:48;;;;;;;;;8.25;8.25;;;;;30.92;57.63;98900.97;5096469;28;8873;-82
2021/05/09 02:12:16;;;;;;;;;8.75;8.75;;;;;30.89;57.22;98896.34;5094523;28;8857;-81
2021/05/09 02:14:45;;;;;;;;;9.00;9.00;;;;;30.99;57.58;98911.06;5096158;28;8833;-84
2021/05/09 02:17:14;;;;;;;;;4.50;4.50;;;;;31.03;57.41;98912.59;5095061;28;8838;-84
2021/05/09 02:19:42;;;;;;;;;7.75;7.75;;;;;31.08;56.41;98911.38;5098218;28;8840;-81
2021/05/09 02:22:12;;;;;;;;;7.25;7.25;;;;;31.08;55.83;98906.72;5097868;28;8864;-82
2021/05/09 02:24:42;;;;;;;;;10.75;10.75;;;;;31.13;56.50;98913.69;5095065;28;8873;-82
2021/05/09 02:27:10;;;;;;;;;12.75;12.75;;;;;31.11;57.68;98911.38;5093264;28;8845;-81
2021/05/09 02:29:38;;;;;;;;;8.50;8.50;;;;;31.13;56.98;98902.78;5089925;28;8911;-81
2021/05/09 02:32:07;;;;;;;;;8.25;8.25;;;;;31.18;57.15;98916.03;5089951;28;8842;-78
2021/05/09 02:34:35;;;;;;;;;9.25;9.25;;;;;31.24;56.23;98916.34;5102677;28;8822;-77
2021/05/09 02:37:04;;;;;;;;;10.25;10.25;;;;;31.27;56.61;98918.25;5114185;28;8919;-81
2021/05/09 02:39:33;;;;;;;;;10.75;10.75;;;;;31.28;56.86;98914.38;5094050;28;9628;-80
2021/05/09 02:42:01;;;;;;;;;11.00;11.00;;;;;31.28;56.23;98914.38;5100917;28;8876;-76
2021/05/09 02:44:29;;;;;;;;;12.75;12.75;;;;;31.21;56.68;98908.97;5098712;28;8843;-79
2021/05/09 02:46:58;;;;;;;;;10.75;10.50;;;;;31.24;57.14;98919.06;5101230;28;8861;-79
2021/05/09 02:49:26;;;;;;;;;14.50;12.00;;;;;31.24;56.52;98919.06;5090107;28;8841;-77
2021/05/09 02:51:55;;;;;;;;;13.00;13.00;;;;;31.22;56.68;98911.28;5092461;28;9617;-77
2021/05/09 02:54:24;;;;;;;;;10.50;10.25;;;;;31.23;56.80;98912.84;5080675;28;9566;-78
2021/05/09 02:56:53;;;;;;;;;12.00;12.00;;;;;31.23;56.92;98915.56;5087574;28;8843;-80
2021/05/09 02:59:21;;;;;;;;;10.50;10.50;;;;;31.24;56.92;98919.06;5097992;28;8829;-76
2021/05/09 03:01:53;;;;;;;;;14.75;14.75;;;;;31.19;56.22;98914.84;5092708;28;8917;-76
2021/05/09 03:04:22;;;;;;;;;13.25;13.25;;;;;31.16;55.31;98904.75;5091431;28;8849;-79
2021/05/09 03:06:51;;;;;;;;;11.50;11.50;;;;;31.20;55.41;98908.22;5086633;28;8872;-74
2021/05/09 03:09:21;;;;;;;;;12.25;12.25;;;;;31.28;55.68;98917.88;5078269;28;9646;-77
2021/05/09 03:11:49;;;;;;;;;14.50;14.50;;;;;31.32;55.55;98910.44;5083252;28;8849;-75
2021/05/09 03:14:17;;;;;;;;;15.25;15.25;;;;;31.38;55.73;98910.78;5072225;28;9588;-75
2021/05/09 03:16:46;;;;;;;;;11.75;11.75;;;;;31.39;55.14;98899.47;5079615;28;8849;-75
2021/05/09 03:19:14;;;;;;;;;14.50;14.50;;;;;31.50;55.07;98909.50;5072659;28;8950;-76
2021/05/09 03:21:43;;;;;;;;;11.50;11.50;;;;;31.58;54.92;98902.81;5082532;28;8845;-77
2021/05/09 03:24:12;;;;;;;;;11.00;11.00;;;;;31.62;54.86;98890.72;5079916;28;8837;-75
2021/05/09 03:26:41;;;;;;;;;13.75;13.75;;;;;31.70;54.34;98894.94;5081118;28;8850;-74
2021/05/09 03:29:09;;;;;;;;;15.25;13.50;;;;;31.74;53.38;98887.50;5084512;28;8849;-72
2021/05/09 03:31:37;;;;;;;;;11.00;11.00;;;;;31.84;54.08;98890.53;5084783;28;8820;-74
2021/05/09 03:34:06;;;;;;;;;13.25;12.00;;;;;31.86;54.11;98880.75;5080022;28;9585;-72
2021/05/09 03:36:35;;;;;;;;;12.75;12.75;;;;;31.95;53.66;98883.00;5084531;28;8837;-73
2021/05/09 03:39:03;;;;;;;;;9.00;9.00;;;;;32.00;53.27;98877.09;5079644;28;8863;-73
2021/05/09 03:41:31;;;;;;;;;11.25;11.25;;;;;32.05;52.82;98868.47;5080540;28;8834;-77
2021/05/09 03:43:59;;;;;;;;;9.00;9.00;;;;;32.15;51.79;98864.06;5082719;28;8821;-80
2021/05/09 03:46:27;;;;;;;;;8.00;8.00;;;;;32.25;51.15;98863.97;5088327;28;8959;-75
2021/05/09 03:48:55;;;;;;;;;8.00;8.00;;;;;32.34;50.86;98864.25;5084091;28;10626;-75
2021/05/09 03:51:24;;;;;;;;;9.40;8.00;;;;;32.43;50.60;98863.75;5102932;28;8849;-74
2021/05/09 03:53:52;;;;;;;;;9.25;9.25;;;;;32.60;51.95;98870.13;5093200;28;8875;-75
2021/05/09 03:56:21;;;;;;;;;8.00;8.00;;;;;32.68;49.97;98852.44;5082517;28;9571;-76
2021/05/09 03:58:49;;;;;;;;;10.00;10.00;;;;;32.78;49.48;98848.03;5080580;28;8883;-76
2021/05/09 04:01:17;;;;;;;;;7.20;7.20;;;;;32.84;49.73;98844.44;5079263;28;8874;-76
2021/05/09 04:03:46;;;;;;;;;7.00;7.00;;;;;32.96;48.24;98845.81;5082896;28;8964;-77
2021/05/09 04:06:14;;;;;;;;;7.00;7.00;;;;;33.01;49.02;98834.41;5096282;28;8837;-77
2021/05/09 04:08:42;;;;;;;;;11.20;10.00;;;;;33.07;49.20;98825.34;5080732;28;8887;-78
2021/05/09 04:11:12;;;;;;;;;5.00;5.00;;;;;33.07;50.17;98816.34;5083546;28;9602;-74
2021/05/09 04:13:49;;;;;;;;;8.20;8.20;;;;;33.11;48.71;98822.53;5080546;28;8844;-77
2021/05/09 04:16:18;;;;;;;;;4.60;4.60;;;;;33.17;49.07;98817.38;5075967;28;8898;-75
2021/05/09 04:18:46;;;;;;;;;8.00;8.00;;;;;33.22;47.81;98814.94;5079343;28;9597;-78
2021/05/09 04:21:14;;;;;;;;;8.00;8.00;;;;;33.31;48.21;98811.69;5079831;28;8814;-76
2021/05/09 04:23:43;;;;;;;;;5.60;5.60;;;;;33.34;47.12;98797.94;5087983;28;8935;-76
2021/05/09 04:26:11;;;;;;;;;4.80;4.80;;;;;33.42;49.38;98800.56;5083843;28;8874;-73
2021/05/09 04:28:39;;;;;;;;;4.40;4.40;;;;;33.49;44.49;98803.16;5079570;28;8840;-74
2021/05/09 04:31:08;;;;;;;;;8.00;8.00;;;;;33.60;46.29;98801.00;5075495;28;8848;-74
2021/05/09 04:33:36;;;;;;;;;6.80;6.80;;;;;33.66;46.55;98786.41;5071096;28;8848;-77
2021/05/09 04:36:10;;;;;;;;;5.20;5.20;;;;;33.85;45.71;98795.03;5076080;28;8832;-74
2021/05/09 04:38:38;;;;;;;;;5.40;5.40;;;;;33.97;49.69;98789.69;5094823;28;8877;-74
2021/05/09 04:41:06;;;;;;;;;7.00;7.00;;;;;34.04;49.61;98791.53;5080782;28;8829;-76
2021/05/09 04:43:37;;;;;;;;;6.00;6.00;;;;;34.03;48.76;98781.75;5079402;28;8838;-81
2021/05/09 04:46:06;;;;;;;;;6.60;6.60;;;;;34.04;49.19;98778.59;5093031;28;9574;-75
2021/05/09 04:48:34;;;;;;;;;6.80;6.80;;;;;34.00;47.50;98774.41;5095388;28;8873;-76
2021/05/09 04:51:02;;;;;;;;;7.00;7.00;;;;;33.92;45.42;98767.53;5095528;28;8849;-76
2021/05/09 04:53:32;;;;;;;;;5.00;5.00;;;;;34.02;46.39;98769.28;5095311;28;8841;-75
2021/05/09 04:56:03;;;;;;;;;6.40;6.40;;;;;34.04;44.72;98758.69;5086380;28;8829;-75
2021/05/09 04:58:31;;;;;;;;;6.20;6.20;;;;;34.12;46.61;98762.03;5085017;28;8938;-76
2021/05/09 05:01:06;;;;;;;;;6.00;6.00;;;;;34.15;44.92;98753.75;5085050;28;8880;-76
2021/05/09 05:03:35;;;;;;;;;3.60;3.60;;;;;34.25;47.59;98752.72;5100857;28;8826;-78
2021/05/09 05:06:04;;;;;;;;;7.60;7.40;;;;;34.31;45.31;98745.59;5085932;28;8837;-77
2021/05/09 05:08:34;;;;;;;;;6.60;6.60;;;;;34.43;46.44;98746.09;5082217;28;8951;-76
2021/05/09 05:11:07;;;;;;;;;8.00;8.00;;;;;34.54;44.23;98739.19;5091353;28;8836;-77
2021/05/09 05:13:36;;;;;;;;;7.20;7.20;;;;;34.63;44.08;98741.31;5085005;28;8817;-75
2021/05/09 05:16:09;;;;;;;;;7.00;7.00;;;;;34.73;43.42;98739.53;5100636;28;8849;-75
2021/05/09 05:18:37;;;;;;;;;9.20;9.20;;;;;34.80;42.59;98729.16;5083997;28;8825;-76
2021/05/09 05:21:06;;;;;;;;;6.00;6.00;;;;;34.82;42.34;98710.34;5086611;28;8843;-75
2021/05/09 05:23:36;;;;;;;;;9.00;9.00;;;;;35.00;43.64;98715.38;5083349;28;8873;-75
2021/05/09 05:26:05;;;;;;;;;6.80;6.80;;;;;35.11;43.51;98715.06;5087435;28;8879;-77
2021/05/09 05:28:33;;;;;;;;;4.40;4.40;;;;;35.19;41.94;98710.91;5082643;28;8828;-75
2021/05/09 05:31:02;;;;;;;;;6.40;6.40;;;;;35.22;43.76;98704.56;5077097;28;8820;-74
2021/05/09 05:33:33;;;;;;;;;5.00;5.00;;;;;35.31;41.48;98702.75;5082789;28;8826;-76
2021/05/09 05:36:05;;;;;;;;;4.60;4.60;;;;;35.34;41.35;98697.63;5082917;27;8885;-74
2021/05/09 05:38:33;;;;;;;;;5.20;5.20;;;;;35.40;41.87;98688.41;5083526;28;8857;-76
2021/05/09 05:41:04;;;;;;;;;7.60;7.20;;;;;35.54;42.52;98682.53;5082763;28;8896;-75
2021/05/09 05:43:33;;;;;;;;;6.80;6.80;;;;;35.69;42.47;98684.84;5081977;28;8850;-77
2021/05/09 05:46:04;;;;;;;;;6.40;6.40;;;;;35.80;40.52;98683.34;5081817;28;8868;-77
2021/05/09 05:48:32;;;;;;;;;5.20;5.20;;;;;35.91;40.56;98672.81;5088155;28;8952;-74
2021/05/09 05:51:00;;;;;;;;;7.00;7.00;;;;;35.98;40.58;98668.31;5084975;28;8838;-75
2021/05/09 05:53:29;;;;;;;;;6.80;6.80;;;;;36.04;40.87;98666.56;5083919;28;8846;-76
2021/05/09 05:55:58;;;;;;;;;6.60;6.60;;;;;35.96;42.71;98655.03;5082096;28;8845;-77
2021/05/09 05:58:26;;;;;;;;;7.40;7.40;;;;;35.99;42.61;98662.41;5082147;28;8876;-77
2021/05/09 06:00:54;;;;;;;;;7.40;7.40;;;;;35.95;41.67;98657.00;5081038;28;8835;-77
2021/05/09 06:03:23;;;;;;;;;7.80;7.80;;;;;35.90;44.08;98645.81;5077480;28;8898;-78
2021/05/09 06:05:54;;;;;;;;;7.40;7.40;;;;;35.81;45.32;98631.97;5082498;28;8805;-75
2021/05/09 06:08:23;;;;;;;;;5.80;5.80;;;;;35.81;43.06;98630.00;5080365;28;8937;-76
2021/05/09 06:10:51;;;;;;;;;8.20;8.20;;;;;35.78;45.84;98630.09;5087804;28;8914;-77
2021/05/09 06:13:23;;;;;;;;;8.40;8.40;;;;;35.76;41.53;98616.03;5080684;28;8865;-76
2021/05/09 06:15:51;;;;;;;;;5.00;5.00;;;;;35.78;44.42;98619.09;5082266;28;8965;-78
2021/05/09 06:18:20;;;;;;;;;6.80;6.80;;;;;35.83;45.67;98613.09;5082161;28;8852;-77
2021/05/09 06:20:48;;;;;;;;;7.20;7.20;;;;;35.78;40.81;98608.13;5080753;28;8832;-76
2021/05/09 06:23:28;;;;;;;;;7.60;7.60;;;;;35.80;45.11;98592.00;5082940;28;8933;-77
2021/05/09 06:25:56;;;;;;;;;8.00;8.00;;;;;35.79;41.17;98596.75;5082852;28;8967;-75
2021/05/09 06:28:24;;;;;;;;;7.00;7.00;;;;;35.84;44.75;98589.94;5085903;28;8837;-76
2021/05/09 06:30:53;;;;;;;;;7.60;7.60;;;;;35.91;44.34;98587.72;5093177;28;8849;-77
2021/05/09 06:33:22;;;;;;;;;7.20;7.20;;;;;35.97;44.62;98576.19;5093346;28;8845;-77
2021/05/09 06:35:52;;;;;;;;;6.60;6.60;;;;;35.97;42.57;98576.97;5093880;28;8861;-75
2021/05/09 06:38:20;;;;;;;;;6.60;6.60;;;;;36.00;39.84;98570.59;5093454;28;9570;-75
2021/05/09 06:40:49;;;;;;;;;5.80;5.80;;;;;36.06;41.88;98562.56;5093478;28;9578;-76
2021/05/09 06:43:18;;;;;;;;;7.60;7.60;;;;;36.15;43.16;98557.91;5093348;28;8849;-76
2021/05/09 06:45:47;;;;;;;;;8.00;8.00;;;;;36.21;43.55;98563.63;5093177;28;8853;-77
2021/05/09 06:48:16;;;;;;;;;8.80;8.00;;;;;36.30;40.47;98560.22;5093484;28;8833;-75
2021/05/09 06:50:44;;;;;;;;;7.60;7.60;;;;;36.40;39.39;98548.88;5092815;28;8871;-76
2021/05/09 06:53:12;;;;;;;;;10.00;10.00;;;;;36.56;39.96;98545.91;5093013;28;8857;-72
2021/05/09 06:55:43;;;;;;;;;7.40;7.40;;;;;36.72;41.10;98541.44;5092667;28;8860;-79
2021/05/09 06:58:11;;;;;;;;;7.60;7.60;;;;;36.86;42.39;98535.47;5092799;28;8926;-75
2021/05/09 07:00:40;;;;;;;;;7.00;7.00;;;;;36.95;42.67;98529.25;5092690;28;8860;-74
2021/05/09 07:03:10;;;;;;;;;6.20;6.20;;;;;37.02;43.00;98527.00;5093032;28;9584;-71
2021/05/09 07:05:42;;;;;;;;;9.60;9.60;;;;;37.01;39.95;98514.47;5091824;28;8872;-75
2021/05/09 07:08:10;;;;;;;;;9.80;9.40;;;;;37.04;40.53;98513.56;5092579;28;8834;-74
2021/05/09 07:10:39;;;;;;;;;7.80;7.80;;;;;37.11;38.93;98518.78;5092464;28;9617;-75
2021/05/09 07:13:07;;;;;;;;;7.80;7.80;;;;;37.18;39.67;98506.75;5092725;28;8928;-77
2021/05/09 07:15:38;;;;;;;;;6.20;6.20;;;;;37.20;40.38;98505.09;5092706;28;8841;-76
2021/05/09 07:18:12;;;;;;;;;7.20;7.20;;;;;37.16;41.85;98503.69;5108129;28;9691;-75
2021/05/09 07:20:44;;;;;;;;;6.60;6.60;;;;;37.06;41.39;98489.13;5092559;28;8849;-74
2021/05/09 07:23:14;;;;;;;;;7.40;7.40;;;;;36.97;43.03;98491.06;5092698;28;8847;-77
2021/05/09 07:25:42;;;;;;;;;6.80;6.80;;;;;36.75;42.43;98489.13;5092277;28;8845;-78
2021/05/09 07:28:14;;;;;;;;;8.40;8.40;;;;;36.53;42.30;98488.34;5092508;28;8825;-76
2021/05/09 07:30:44;;;;;;;;;8.00;8.00;;;;;36.24;42.76;98475.63;5092009;28;8880;-76
2021/05/09 07:33:13;;;;;;;;;11.20;11.20;;;;;36.15;44.35;98489.25;5092049;28;8856;-77
2021/05/09 07:35:44;;;;;;;;;12.00;12.00;;;;;35.97;44.07;98488.34;5092295;28;8845;-76
2021/05/09 07:38:13;;;;;;;;;11.80;11.60;;;;;35.83;44.62;98482.13;5092227;28;8883;-77
2021/05/09 07:40:42;;;;;;;;;11.40;11.40;;;;;35.69;44.03;98468.06;5092303;28;8829;-77
2021/05/09 07:43:14;;;;;;;;;12.60;12.60;;;;;35.64;44.35;98472.13;5092149;28;8865;-76
2021/05/09 07:45:44;;;;;;;;;11.80;11.80;;;;;35.55;45.01;98470.06;5092026;28;8852;-74
2021/05/09 07:48:12;;;;;;;;;9.60;9.60;;;;;35.46;44.81;98461.72;5092231;28;8856;-74
2021/05/09 07:50:41;;;;;;;;;9.80;9.80;;;;;35.39;44.88;98455.72;5091896;28;8902;-75
2021/05/09 07:53:10;;;;;;;;;12.80;12.80;;;;;35.33;45.00;98462.94;5091888;28;8885;-74
2021/05/09 07:55:39;;;;;;;;;12.20;12.20;;;;;35.29;44.49;98460.28;5091947;28;8905;-74
2021/05/09 07:58:15;;;;;;;;;8.60;8.60;;;;;35.28;43.87;98456.78;5107238;28;8867;-74
2021/05/09 08:00:44;;;;;;;;;12.60;12.60;;;;;35.25;45.38;98456.91;5091993;28;8829;-75
2021/05/09 08:03:13;;;;;;;;;11.00;11.00;;;;;35.29;44.96;98446.59;5091993;28;8869;-73
2021/05/09 08:05:43;;;;;;;;;10.40;10.40;;;;;35.24;44.91;98441.66;5091712;28;8964;-75
2021/05/09 08:08:11;;;;;;;;;9.80;9.80;;;;;35.27;45.33;98435.28;5091879;28;8841;-74
2021/05/09 08:10:42;;;;;;;;;8.20;8.20;;;;;35.29;45.19;98441.09;5091538;28;8872;-73
2021/05/09 08:13:13;;;;;;;;;8.20;8.00;;;;;35.31;44.73;98431.25;5082753;28;8848;-74
2021/05/09 08:15:42;;;;;;;;;9.40;9.40;;;;;35.39;44.53;98434.53;5078573;28;8910;-74
2021/05/09 08:18:10;;;;;;;;;11.80;11.80;;;;;35.44;44.49;98414.00;5074061;28;8908;-73
2021/05/09 08:20:39;;;;;;;;;11.00;11.00;;;;;35.62;44.42;98425.94;5075731;28;8882;-73
2021/05/09 08:23:08;;;;;;;;;14.00;14.00;;;;;35.75;44.14;98414.16;5074557;28;8850;-77
2021/05/09 08:25:37;;;;;;;;;11.80;11.80;;;;;35.92;44.84;98418.28;5090803;28;8913;-74
2021/05/09 08:28:08;;;;;;;;;13.80;13.80;;;;;35.97;43.58;98416.97;5075502;28;8836;-73
2021/05/09 08:30:36;;;;;;;;;11.80;11.80;;;;;35.97;43.70;98414.97;5075291;28;8844;-73
2021/05/09 08:33:05;;;;;;;;;11.40;11.40;;;;;36.02;45.13;98419.13;5075221;28;8866;-74
2021/05/09 08:35:33;;;;;;;;;10.80;10.80;;;;;36.02;44.50;98408.94;5075333;28;8935;-73
2021/05/09 08:38:04;;;;;;;;;10.20;10.20;;;;;35.98;44.25;98399.28;5074941;28;8839;-73
2021/05/09 08:40:32;;;;;;;;;14.80;13.00;;;;;35.95;42.88;98400.94;5075340;28;8852;-74
2021/05/09 08:43:01;;;;;;;;;10.60;10.60;;;;;36.01;42.74;98398.38;5082490;28;8838;-75
2021/05/09 08:45:29;;;;;;;;;12.00;12.00;;;;;36.07;42.25;98393.84;5083488;28;8856;-75
2021/05/09 08:47:58;;;;;;;;;11.00;11.00;;;;;36.11;42.82;98387.03;5082159;28;8842;-74
2021/05/09 08:50:27;;;;;;;;;9.60;9.60;;;;;36.25;44.03;98383.00;5083179;28;8836;-73
2021/05/09 08:52:55;;;;;;;;;8.60;8.60;;;;;36.31;44.17;98388.72;5083281;28;8838;-74
2021/05/09 08:55:27;;;;;;;;;12.60;12.60;;;;;36.23;42.45;98394.44;5084331;28;9617;-73
2021/05/09 08:57:57;;;;;;;;;9.20;9.20;;;;;36.14;42.14;98382.63;5084261;28;8836;-72
2021/05/09 09:00:26;;;;;;;;;10.00;10.00;;;;;36.18;42.86;98377.75;5079947;28;8832;-73
2021/05/09 09:03:02;;;;;;;;;10.40;10.40;;;;;36.25;41.84;98378.28;5079956;28;8872;-74
2021/05/09 09:05:46;;;;;;;;;10.00;10.00;;;;;36.34;41.81;98374.84;5085024;28;8849;-73
2021/05/09 09:08:15;;;;;;;;;10.00;10.00;;;;;36.43;42.11;98368.59;5084328;28;8944;-73
2021/05/09 09:10:49;;;;;;;;;10.60;10.60;;;;;36.47;41.92;98367.25;5083239;28;8890;-75
2021/05/09 09:13:32;;;;;;;;;10.40;10.40;;;;;36.52;41.35;98365.91;5082972;28;8849;-77
2021/05/09 09:16:03;;;;;;;;;9.40;9.20;;;;;36.53;41.63;98364.69;5084901;28;9000;-75
2021/05/09 09:18:42;;;;;;;;;10.60;10.60;;;;;36.53;43.04;98364.69;5085966;28;8844;-76
2021/05/09 09:21:31;;;;;;;;;8.60;8.60;;;;;36.51;40.90;98361.63;5086015;28;8840;-74
2021/05/09 09:24:06;;;;;;;;;9.00;9.00;;;;;36.48;41.30;98359.78;5084804;28;8863;-74
2021/05/09 09:26:52;;;;;;;;;8.40;8.40;;;;;36.41;41.68;98354.56;5087011;28;8845;-76
2021/05/09 09:29:33;;;;;;;;;9.40;9.20;;;;;36.37;41.70;98351.19;5083647;28;8836;-76
2021/05/09 09:32:03;;;;;;;;;9.40;9.40;;;;;36.32;42.98;98349.03;5088930;28;8841;-76
2021/05/09 09:34:45;;;;;;;;;12.40;12.40;;;;;36.22;42.44;98354.44;5093004;28;8821;-77
2021/05/09 09:37:16;;;;;;;;;4.80;4.80;;;;;36.09;42.39;98353.75;5087194;28;8875;-74
2021/05/09 09:39:50;;;;;;;;;10.60;9.40;;;;;35.96;42.08;98353.06;5082172;28;8913;-73
2021/05/09 09:42:44;;;;;;;;;12.00;12.00;;;;;35.82;43.27;98345.31;5084341;28;8873;-71
2021/05/09 09:45:23;;;;;;;;;13.20;13.20;;;;;35.64;43.90;98334.94;5084468;28;8837;-71
2021/05/09 09:48:00;;;;;;;;;10.80;10.80;;;;;35.57;43.65;98335.19;5097257;28;8840;-73
2021/05/09 09:50:37;;;;;;;;;10.20;9.00;;;;;35.41;44.20;98340.84;5073827;28;8864;-71
2021/05/09 09:53:29;;;;;;;;;10.60;10.60;;;;;35.28;44.36;98343.59;5073901;28;8866;-72
2021/05/09 09:56:08;;;;;;;;;10.80;10.20;;;;;35.13;44.92;98335.06;5074043;28;8960;-72
2021/05/09 09:58:54;;;;;;;;;10.00;10.00;;;;;35.04;45.34;98337.72;5073925;28;8855;-72
2021/05/09 10:01:34;;;;;;;;;11.00;11.00;;;;;34.90;45.17;98333.47;5073705;28;8864;-72
2021/05/09 10:04:07;;;;;;;;;11.00;10.80;;;;;34.79;44.19;98333.00;5073894;28;8866;-73
2021/05/09 10:06:39;;;;;;;;;10.00;10.00;;;;;34.71;43.98;98333.66;5073865;28;8844;-72
2021/05/09 10:09:09;;;;;;;;;11.20;11.20;;;;;34.69;44.78;98334.09;5073743;28;8916;-73
2021/05/09 10:11:38;;;;;;;;;8.80;8.80;;;;;34.70;45.37;98343.09;5088815;28;8843;-72
2021/05/09 10:14:07;;;;;;;;;8.60;8.60;;;;;34.64;44.61;98349.13;5073751;28;8852;-72
2021/05/09 10:16:40;;;;;;;;;11.40;11.40;;;;;34.54;44.59;98339.25;5073199;28;8858;-73
2021/05/09 10:19:14;;;;;;;;;12.40;12.40;;;;;34.42;44.28;98339.25;5073331;28;8850;-76
2021/05/09 10:21:43;;;;;;;;;12.80;12.80;;;;;34.48;44.37;98346.47;5077607;28;8851;-75
2021/05/09 10:24:22;;;;;;;;;11.00;11.00;;;;;34.43;44.95;98344.28;5082128;28;8826;-74
2021/05/09 10:26:59;;;;;;;;;11.00;10.60;;;;;34.45;45.39;98349.31;5084403;28;8841;-75
2021/05/09 10:29:37;;;;;;;;;11.60;11.60;;;;;34.41;45.43;98348.66;5082849;28;9611;-74
2021/05/09 10:32:18;;;;;;;;;11.80;11.80;;;;;34.32;45.94;98350.06;5083002;28;8828;-75
2021/05/09 10:40:17;;;;;;;;;15.60;14.80;;;;;34.10;46.21;98351.84;5082150;28;8836;-76
2021/05/09 10:42:48;;;;;;;;;15.20;15.20;;;;;34.01;46.57;98355.22;5082447;28;8829;-74
2021/05/09 10:50:46;;;;;;;;;15.00;15.00;;;;;33.81;46.86;98362.81;5081831;28;8882;-74
2021/05/09 10:53:36;;;;;;;;;18.80;18.80;;;;;33.72;46.85;98382.56;5080423;28;8820;-75
2021/05/09 10:56:18;;;;;;;;;21.60;21.60;;;;;33.63;46.95;98376.94;5082611;28;9594;-77
2021/05/09 10:58:51;;;;;;;;;18.80;18.80;;;;;33.55;47.00;98374.81;5081344;28;8874;-75
2021/05/09 11:01:24;;;;;;;;;21.25;21.25;;;;;33.45;47.23;98376.63;5084733;28;8853;-75
2021/05/09 11:04:04;;;;;;;;;18.50;18.50;;;;;33.38;47.33;98385.78;5082088;28;8860;-75
2021/05/09 11:06:35;;;;;;;;;23.50;23.50;;;;;33.33;47.13;98394.50;5082324;28;8833;-77
2021/05/09 11:09:29;;;;;;;;;24.50;24.50;;;;;33.25;47.30;98403.25;5083117;28;8852;-75
2021/05/09 11:12:00;;;;;;;;;20.00;20.00;;;;;33.21;47.34;98397.09;5082265;28;8918;-75
2021/05/09 11:14:30;;;;;;;;;26.25;25.25;;;;;33.18;47.41;98406.16;5081719;28;8832;-75
2021/05/09 11:17:01;;;;;;;;;20.50;20.25;;;;;33.14;47.42;98414.44;5080086;28;8844;-76
2021/05/09 11:19:36;;;;;;;;;49.00;41.75;;;;;33.12;47.36;98413.34;5095414;28;8873;-76
2021/05/09 11:22:04;;;;;;;;;84.25;79.75;;;;;33.08;47.39;98416.91;5080780;28;8848;-75
2021/05/09 11:24:34;;;;;;;;;104.00;95.25;;;;;33.05;47.58;98420.50;5079944;28;11636;-77
2021/05/09 11:27:09;;;;;;;;;122.75;107.50;;;;;33.02;47.89;98421.34;5080384;28;11630;-77
2021/05/09 11:29:41;;;;;;;;;75.75;57.75;;;;;32.99;47.65;98416.72;5080620;28;11582;-80
2021/05/09 11:32:12;;;;;;;;;63.33;50.00;;;;;32.97;47.75;98423.81;5080047;28;10910;-76
2021/05/09 11:34:55;;;;;;;;;50.00;41.25;;;;;32.94;48.00;98428.16;5082689;28;9303;-76
2021/05/09 11:37:32;;;;;;;;;45.00;38.75;;;;;32.87;47.83;98411.94;5080028;28;8936;-76
2021/05/09 11:40:04;;;;;;;;;37.50;32.50;;;;;32.87;47.92;98422.84;5081528;28;8834;-73
2021/05/09 11:42:32;;;;;;;;;41.00;36.00;;;;;32.86;47.82;98429.50;5081497;28;8852;-75
2021/05/09 11:45:00;;;;;;;;;35.75;33.75;;;;;32.88;47.90;98435.31;5078706;28;8829;-73
2021/05/09 11:47:36;;;;;;;;;36.75;32.75;;;;;32.85;48.05;98435.41;5079119;28;8877;-77
2021/05/09 11:50:08;;;;;;;;;34.75;33.50;;;;;32.85;48.05;98433.44;5079179;28;8978;-78
2021/05/09 11:52:43;;;;;;;;;35.50;34.00;;;;;32.84;48.07;98431.13;5080463;28;8856;-78
2021/05/09 11:55:16;;;;;;;;;34.75;33.25;;;;;32.80;48.14;98442.13;5077640;28;8814;-77
2021/05/09 11:57:45;;;;;;;;;45.00;39.25;;;;;32.75;48.79;98453.53;5078897;28;8826;-79
2021/05/09 12:00:18;;;;;;;;;43.00;37.75;;;;;32.71;48.96;98439.94;5078941;28;8820;-74